Time;durP1;ratioP1;P1;durP2;ratioP2;P2;SDS_P1;SDS_P2;PMS_P1;PMS_P2;Temp;Humidity;BMP_temperature;BMP_pressure;BME280_temperature;BME280_humidity;BME280_pressure;Samples;Min_cycle;Max_cycle;Signal;HPM_P1;HPM_P2
2022/04/16 00:00:17;;;;;;;29.38;22.75;;;10.10;79.10;;;;;;5023991;28;20044;-75
2022/04/16 00:02:45;;;;;;;28.38;23.05;;;10.10;78.90;;;;;;5021110;28;20526;-75
2022/04/16 00:05:10;;;;;;;26.75;23.42;;;10.00;79.10;;;;;;5013524;28;20041;-75
2022/04/16 00:07:36;;;;;;;28.35;23.83;;;9.90;79.30;;;;;;5031945;28;20044;-75
2022/04/16 00:10:02;;;;;;;28.75;23.48;;;9.80;79.60;;;;;;5017129;28;20476;-75
2022/04/16 00:12:28;;;;;;;27.77;23.90;;;9.80;79.50;;;;;;5021364;28;20049;-76
2022/04/16 00:14:55;;;;;;;27.02;23.33;;;9.80;79.60;;;;;;5019020;28;20034;-75
2022/04/16 00:17:21;;;;;;;25.58;22.55;;;9.80;79.70;;;;;;5022187;28;20154;-75
2022/04/16 00:19:47;;;;;;;28.38;23.92;;;9.70;79.80;;;;;;5020662;28;20034;-75
2022/04/16 00:22:13;;;;;;;29.30;23.35;;;9.70;79.80;;;;;;5010514;28;20044;-75
2022/04/16 00:24:42;;;;;;;30.33;23.65;;;9.70;79.80;;;;;;5020960;28;20045;-75
2022/04/16 00:27:11;;;;;;;31.98;25.35;;;9.70;79.80;;;;;;5015511;28;20041;-75
2022/04/16 00:29:37;;;;;;;31.42;23.55;;;9.60;79.90;;;;;;5018464;28;20038;-75
2022/04/16 00:32:06;;;;;;;31.55;25.73;;;9.60;80.00;;;;;;5022805;28;20060;-74
2022/04/16 00:34:32;;;;;;;28.33;24.20;;;9.60;80.00;;;;;;5023305;28;20071;-75
2022/04/16 00:36:58;;;;;;;31.15;24.80;;;9.60;80.10;;;;;;5011469;28;20337;-75
2022/04/16 00:39:25;;;;;;;29.52;24.73;;;9.50;80.20;;;;;;5020648;28;20323;-75
2022/04/16 00:41:51;;;;;;;27.63;24.33;;;9.40;80.30;;;;;;5028623;28;20056;-75
2022/04/16 00:44:20;;;;;;;28.27;24.35;;;9.40;80.30;;;;;;5025905;28;20065;-75
2022/04/16 00:46:47;;;;;;;29.42;25.13;;;9.40;80.20;;;;;;5018680;28;20118;-74
2022/04/16 00:49:13;;;;;;;29.88;24.30;;;9.40;80.30;;;;;;5004768;28;20045;-75
2022/04/16 00:51:43;;;;;;;31.40;25.55;;;9.40;80.30;;;;;;5025569;28;20037;-74
2022/04/16 00:54:09;;;;;;;30.23;24.30;;;9.30;80.50;;;;;;5020973;28;20120;-74
2022/04/16 00:56:36;;;;;;;30.20;25.83;;;9.30;80.60;;;;;;5006664;28;20044;-74
2022/04/16 00:59:04;;;;;;;30.95;25.30;;;9.20;80.70;;;;;;5024524;28;20143;-76
2022/04/16 01:01:33;;;;;;;29.98;24.73;;;9.20;80.90;;;;;;5023486;28;20061;-75
2022/04/16 01:03:59;;;;;;;30.10;25.33;;;9.20;80.90;;;;;;5023492;28;20041;-75
2022/04/16 01:06:38;;;;;;;31.35;24.85;;;9.20;80.90;;;;;;5025877;28;20578;-76
2022/04/16 01:09:04;;;;;;;30.60;23.88;;;9.20;80.90;;;;;;5001418;28;20032;-74
2022/04/16 01:11:32;;;;;;;28.95;24.08;;;9.20;80.90;;;;;;5027803;28;20064;-75
2022/04/16 01:13:59;;;;;;;32.55;25.15;;;9.20;81.00;;;;;;5017193;28;20114;-76
2022/04/16 01:16:24;;;;;;;28.95;24.63;;;9.10;81.10;;;;;;5020544;28;20056;-75
2022/04/16 01:18:50;;;;;;;29.27;24.13;;;9.10;81.20;;;;;;5028996;28;20393;-76
2022/04/16 01:21:17;;;;;;;33.38;24.83;;;9.10;81.00;;;;;;5025802;28;20220;-75
2022/04/16 01:23:42;;;;;;;31.10;25.23;;;9.10;81.00;;;;;;5019908;28;20090;-77
2022/04/16 01:26:08;;;;;;;31.50;25.73;;;9.10;81.10;;;;;;5020009;28;20045;-75
2022/04/16 01:28:34;;;;;;;29.20;24.33;;;9.10;81.20;;;;;;5025568;28;20041;-74
2022/04/16 01:30:59;;;;;;;30.83;26.08;;;9.10;81.20;;;;;;5036384;28;20044;-74
2022/04/16 01:33:25;;;;;;;32.97;26.45;;;9.00;81.20;;;;;;5023758;28;20050;-75
2022/04/16 01:35:53;;;;;;;31.48;26.02;;;9.10;81.40;;;;;;5029340;28;20045;-74
2022/04/16 01:38:19;;;;;;;31.08;25.52;;;9.00;81.40;;;;;;5007149;28;20073;-75
2022/04/16 01:40:45;;;;;;;30.35;26.83;;;9.00;81.50;;;;;;5018269;28;20143;-74
2022/04/16 01:43:11;;;;;;;30.98;26.17;;;9.00;81.50;;;;;;5023742;28;20412;-74
2022/04/16 01:45:36;;;;;;;30.27;26.35;;;9.00;81.60;;;;;;5026448;28;20548;-75
2022/04/16 01:48:02;;;;;;;31.10;26.02;;;8.90;81.80;;;;;;5009298;28;20518;-74
2022/04/16 01:50:28;;;;;;;31.75;26.35;;;8.90;81.90;;;;;;5030797;28;20484;-74
2022/04/16 01:52:54;;;;;;;33.10;26.60;;;9.00;81.80;;;;;;5029400;28;20041;-74
2022/04/16 01:55:20;;;;;;;29.17;25.20;;;9.00;81.80;;;;;;5020715;28;20045;-75
2022/04/16 01:57:45;;;;;;;33.33;28.10;;;8.90;81.80;;;;;;5022066;28;20036;-75
2022/04/16 02:00:14;;;;;;;31.85;27.10;;;8.90;82.00;;;;;;5018822;28;20030;-74
2022/04/16 02:02:40;;;;;;;33.05;27.88;;;8.90;82.10;;;;;;5003080;28;20065;-74
2022/04/16 02:05:08;;;;;;;33.80;26.92;;;8.90;82.00;;;;;;5026291;28;20120;-74
2022/04/16 02:07:33;;;;;;;32.53;27.67;;;8.80;82.00;;;;;;5026326;28;20029;-74
2022/04/16 02:10:00;;;;;;;33.75;28.02;;;8.80;82.20;;;;;;5019545;28;20033;-73
2022/04/16 02:12:26;;;;;;;32.00;26.45;;;8.70;82.30;;;;;;5018533;28;20125;-73
2022/04/16 02:14:51;;;;;;;35.95;27.50;;;8.70;82.50;;;;;;5035675;28;20585;-73
2022/04/16 02:17:17;;;;;;;32.03;26.17;;;8.70;82.60;;;;;;5022740;28;20084;-73
2022/04/16 02:19:43;;;;;;;31.33;27.02;;;8.70;82.60;;;;;;5022938;28;20025;-73
2022/04/16 02:22:11;;;;;;;39.15;29.38;;;8.70;82.50;;;;;;5022225;28;20080;-74
2022/04/16 02:24:38;;;;;;;88.55;53.63;;;8.70;82.40;;;;;;5019070;28;20057;-74
2022/04/16 02:27:04;;;;;;;72.72;48.08;;;8.70;82.40;;;;;;5024210;28;20507;-74
2022/04/16 02:29:31;;;;;;;43.88;33.25;;;8.60;82.50;;;;;;5029277;28;20032;-74
2022/04/16 02:31:57;;;;;;;34.00;27.77;;;8.60;82.60;;;;;;5019350;28;20377;-75
2022/04/16 02:34:23;;;;;;;33.92;27.52;;;8.60;82.40;;;;;;5025709;28;20075;-74
2022/04/16 02:36:48;;;;;;;33.90;26.92;;;8.60;82.30;;;;;;5022275;28;20026;-74
2022/04/16 02:39:15;;;;;;;32.03;26.88;;;8.60;82.40;;;;;;5015281;28;20034;-74
2022/04/16 02:41:41;;;;;;;33.90;27.75;;;8.60;82.40;;;;;;5024535;28;20128;-74
2022/04/16 02:47:04;;;;;;;34.10;28.75;;;8.60;82.60;;;;;;5022868;28;20045;-77
2022/04/16 02:47:08;;;;;;;36.33;27.20;;;8.60;82.60;;;;;;5030151;28;20026;-76
2022/04/16 02:49:39;;;;;;;32.63;27.27;;;8.50;82.80;;;;;;5036639;28;20087;-76
2022/04/16 02:52:05;;;;;;;33.95;28.02;;;8.50;82.90;;;;;;5022193;28;20045;-75
2022/04/16 02:54:31;;;;;;;33.15;27.30;;;8.40;83.00;;;;;;5025724;28;20536;-75
2022/04/16 02:56:57;;;;;;;32.92;27.40;;;8.40;82.90;;;;;;5032396;28;20119;-75
2022/04/16 02:59:23;;;;;;;35.35;28.33;;;8.40;82.80;;;;;;5018879;28;20757;-75
2022/04/16 03:01:49;;;;;;;34.63;28.10;;;8.40;83.00;;;;;;5023763;28;20029;-76
2022/04/16 03:04:15;;;;;;;33.58;27.40;;;8.40;83.10;;;;;;5019742;28;20506;-75
2022/04/16 03:06:40;;;;;;;35.03;27.30;;;8.40;83.10;;;;;;5020512;28;20030;-75
2022/04/16 03:09:06;;;;;;;33.85;26.77;;;8.30;82.90;;;;;;5023628;28;20560;-75
2022/04/16 03:11:32;;;;;;;33.97;28.63;;;8.30;83.00;;;;;;5026754;28;20470;-74
2022/04/16 03:17:31;;;;;;;36.75;28.67;;;8.30;83.00;;;;;;5017707;28;20029;-75
2022/04/16 03:19:27;;;;;;;97.50;59.97;;;8.30;83.20;;;;;;5019343;28;20117;-75
2022/04/16 03:21:53;;;;;;;41.45;31.75;;;8.20;83.10;;;;;;5012351;28;20049;-75
2022/04/16 03:24:18;;;;;;;97.55;62.95;;;8.20;83.20;;;;;;5014124;28;20481;-75
2022/04/16 03:26:44;;;;;;;67.72;46.65;;;8.20;83.30;;;;;;5002248;28;20033;-75
2022/04/16 03:29:10;;;;;;;36.70;29.02;;;8.20;83.40;;;;;;5019662;28;20048;-75
2022/04/16 03:31:35;;;;;;;37.15;29.10;;;8.10;83.40;;;;;;5026616;28;20040;-75
2022/04/16 03:34:01;;;;;;;37.58;29.60;;;8.10;83.60;;;;;;5015774;28;20038;-75
2022/04/16 03:36:27;;;;;;;36.83;29.48;;;8.10;83.60;;;;;;5008315;28;20036;-75
2022/04/16 03:38:52;;;;;;;33.25;28.38;;;8.10;83.60;;;;;;5013723;28;20044;-75
2022/04/16 03:41:18;;;;;;;35.38;28.83;;;8.10;83.70;;;;;;5033645;28;20555;-75
2022/04/16 03:43:43;;;;;;;34.35;28.33;;;8.10;83.60;;;;;;5016495;28;20050;-75
2022/04/16 03:46:09;;;;;;;35.78;28.85;;;8.10;83.70;;;;;;4998206;28;20037;-75
2022/04/16 03:48:35;;;;;;;36.63;29.85;;;8.10;83.70;;;;;;5019301;28;20465;-75
2022/04/16 03:51:00;;;;;;;36.60;29.92;;;8.00;83.80;;;;;;5025302;28;20293;-74
2022/04/16 03:53:26;;;;;;;41.70;34.20;;;8.10;83.90;;;;;;5019718;28;20362;-75
2022/04/16 04:01:20;;;;;;;35.83;28.47;;;8.00;84.10;;;;;;5026183;28;20069;-75
2022/04/16 04:03:46;;;;;;;37.63;29.67;;;7.90;83.90;;;;;;5019832;28;20061;-75
2022/04/16 04:06:12;;;;;;;35.75;29.10;;;7.90;84.10;;;;;;5022196;28;20041;-74
2022/04/16 04:08:38;;;;;;;39.88;29.75;;;7.90;84.30;;;;;;5022835;28;20043;-75
2022/04/16 04:11:04;;;;;;;37.58;29.67;;;7.80;84.40;;;;;;5027326;28;20099;-75
2022/04/16 04:13:29;;;;;;;38.17;30.70;;;7.80;84.50;;;;;;5029259;28;20037;-75
2022/04/16 04:15:55;;;;;;;38.47;30.92;;;7.80;84.70;;;;;;5029302;28;20400;-75
2022/04/16 04:18:22;;;;;;;40.22;31.08;;;7.70;84.70;;;;;;5023320;28;20037;-75
2022/04/16 04:20:48;;;;;;;39.03;32.00;;;7.70;85.00;;;;;;5019465;28;20053;-75
2022/04/16 04:23:14;;;;;;;40.33;31.13;;;7.70;85.10;;;;;;5030767;28;20061;-75
2022/04/16 04:25:39;;;;;;;39.08;31.52;;;7.70;85.20;;;;;;5015706;28;20065;-75
2022/04/16 04:28:05;;;;;;;38.50;31.35;;;7.60;85.10;;;;;;5023843;28;20037;-75
2022/04/16 04:30:31;;;;;;;39.38;31.70;;;7.60;85.40;;;;;;5019579;28;20444;-75
2022/04/16 04:32:58;;;;;;;41.55;33.03;;;7.60;85.60;;;;;;5020744;28;20496;-76
2022/04/16 04:35:25;;;;;;;42.53;32.97;;;7.50;85.60;;;;;;5021186;28;20116;-75
2022/04/16 04:37:51;;;;;;;43.17;33.13;;;7.50;85.80;;;;;;5018548;28;20385;-75
2022/04/16 04:40:16;;;;;;;40.63;32.90;;;7.50;85.80;;;;;;5023872;28;20030;-75
2022/04/16 04:42:42;;;;;;;42.10;33.17;;;7.50;85.80;;;;;;5028775;28;20072;-75
2022/04/16 04:45:12;;;;;;;39.22;31.02;;;7.50;85.70;;;;;;5019429;28;20044;-75
2022/04/16 04:47:39;;;;;;;39.80;32.25;;;7.60;85.80;;;;;;5014972;28;20418;-75
2022/04/16 04:50:05;;;;;;;38.20;30.95;;;7.60;85.70;;;;;;5029617;28;20037;-75
2022/04/16 04:52:31;;;;;;;37.97;30.23;;;7.60;85.50;;;;;;5023280;28;20575;-75
2022/04/16 04:54:58;;;;;;;37.72;31.00;;;7.60;85.50;;;;;;5024581;28;20041;-75
2022/04/16 04:57:24;;;;;;;38.58;32.13;;;7.60;85.40;;;;;;5031990;28;20052;-75
2022/04/16 04:59:50;;;;;;;37.25;30.33;;;7.60;85.30;;;;;;5025123;28;20063;-76
2022/04/16 05:02:16;;;;;;;35.65;29.35;;;7.70;85.20;;;;;;5018860;28;20030;-75
2022/04/16 05:04:42;;;;;;;37.45;30.40;;;7.70;85.20;;;;;;5018914;28;20046;-75
2022/04/16 05:07:09;;;;;;;39.83;32.15;;;7.80;85.00;;;;;;5032625;28;20037;-75
2022/04/16 05:09:39;;;;;;;37.20;29.73;;;7.80;84.90;;;;;;5023998;28;20087;-73
2022/04/16 05:12:06;;;;;;;39.88;32.20;;;7.80;84.90;;;;;;5026250;28;20038;-71
2022/04/16 05:14:32;;;;;;;41.17;33.28;;;7.90;84.80;;;;;;4993665;28;20455;-71
2022/04/16 05:16:58;;;;;;;41.10;32.70;;;7.90;84.60;;;;;;5007343;28;20064;-73
2022/04/16 05:19:23;;;;;;;46.25;35.80;;;8.00;84.50;;;;;;5009445;28;20117;-72
2022/04/16 05:21:49;;;;;;;76.88;50.95;;;8.00;84.10;;;;;;5011722;28;20484;-72
2022/04/16 05:24:15;;;;;;;78.57;52.78;;;8.10;84.10;;;;;;5016442;28;20057;-72
2022/04/16 05:26:40;;;;;;;120.07;77.53;;;8.10;83.80;;;;;;5012633;28;20030;-73
2022/04/16 05:29:06;;;;;;;117.85;75.32;;;8.10;83.80;;;;;;5009890;28;20380;-72
2022/04/16 05:31:33;;;;;;;87.68;58.13;;;8.20;83.60;;;;;;4999811;28;20033;-72
2022/04/16 05:36:43;;;;;;;43.03;32.58;;;8.30;83.40;;;;;;5017433;28;20152;-73
2022/04/16 05:39:09;;;;;;;38.92;30.50;;;8.30;83.10;;;;;;5015457;28;20048;-74
2022/04/16 05:41:36;;;;;;;37.92;29.60;;;8.30;83.10;;;;;;5017748;28;20030;-73
2022/04/16 05:44:03;;;;;;;35.13;29.35;;;8.20;83.20;;;;;;5019163;28;20045;-73
2022/04/16 05:46:29;;;;;;;38.17;30.80;;;8.20;83.40;;;;;;5012790;28;20029;-73
2022/04/16 05:48:55;;;;;;;39.35;30.88;;;8.20;83.30;;;;;;5016041;28;20048;-72
2022/04/16 05:51:21;;;;;;;39.65;31.23;;;8.20;83.40;;;;;;5018549;28;20413;-72
2022/04/16 05:53:48;;;;;;;38.92;31.42;;;8.10;83.60;;;;;;5022416;28;20044;-72
2022/04/16 05:56:14;;;;;;;39.20;32.03;;;8.20;83.80;;;;;;5026526;28;20481;-72
2022/04/16 05:58:41;;;;;;;37.70;30.83;;;8.20;83.50;;;;;;5003275;28;20134;-72
2022/04/16 06:01:08;;;;;;;37.55;30.77;;;8.20;83.50;;;;;;5021778;28;20060;-73
2022/04/16 06:03:36;;;;;;;40.60;31.92;;;8.20;83.60;;;;;;5019786;28;20037;-73
2022/04/16 06:06:05;;;;;;;41.00;33.22;;;8.30;83.50;;;;;;5015467;28;20144;-72
2022/04/16 06:08:31;;;;;;;43.30;32.65;;;8.20;83.70;;;;;;5023436;28;20070;-72
2022/04/16 06:10:56;;;;;;;41.88;33.22;;;8.30;83.70;;;;;;5011213;28;20030;-71
2022/04/16 06:13:22;;;;;;;38.72;31.48;;;8.40;83.80;;;;;;5003528;28;20042;-73
2022/04/16 06:15:48;;;;;;;40.20;31.83;;;8.50;83.70;;;;;;5020010;28;20042;-73
2022/04/16 06:18:13;;;;;;;41.60;32.88;;;8.50;83.50;;;;;;5021385;28;20029;-73
2022/04/16 06:20:39;;;;;;;44.58;33.67;;;8.60;83.30;;;;;;4998401;28;20091;-73
2022/04/16 06:23:06;;;;;;;47.58;37.20;;;8.60;83.10;;;;;;5010896;28;20913;-72
2022/04/16 06:25:32;;;;;;;113.38;92.38;;;8.60;83.10;;;;;;5019454;28;20094;-71
2022/04/16 06:27:57;;;;;;;57.28;46.80;;;8.70;83.10;;;;;;5004563;28;20394;-71
2022/04/16 06:30:23;;;;;;;60.08;46.88;;;8.70;83.00;;;;;;5012034;28;20038;-72
2022/04/16 06:32:49;;;;;;;45.08;36.90;;;8.80;82.80;;;;;;4996788;28;20076;-72
2022/04/16 06:35:15;;;;;;;55.33;44.03;;;8.80;82.40;;;;;;5011273;28;20611;-73
2022/04/16 06:37:44;;;;;;;46.88;37.70;;;8.90;82.50;;;;;;5011944;28;20042;-71
2022/04/16 06:40:11;;;;;;;44.88;34.80;;;8.90;82.30;;;;;;5026410;28;20037;-71
2022/04/16 06:42:37;;;;;;;63.03;45.97;;;8.90;82.20;;;;;;5024108;28;20037;-73
2022/04/16 06:45:08;;;;;;;90.95;65.18;;;8.90;82.00;;;;;;5032291;28;20119;-70
2022/04/16 06:47:34;;;;;;;41.90;33.90;;;8.90;82.20;;;;;;5001015;28;20079;-72
2022/04/16 06:49:59;;;;;;;46.78;37.95;;;8.90;82.30;;;;;;5032785;28;20397;-70
2022/04/16 06:52:25;;;;;;;47.00;35.65;;;9.00;82.50;;;;;;5022690;28;20085;-72
2022/04/16 06:54:51;;;;;;;44.17;34.92;;;9.10;82.30;;;;;;5016027;28;20529;-73
2022/04/16 06:57:16;;;;;;;44.35;37.33;;;9.10;82.00;;;;;;5012371;28;20044;-71
2022/04/16 06:59:42;;;;;;;59.95;48.83;;;9.10;82.20;;;;;;5024744;28;20051;-72
2022/04/16 07:02:10;;;;;;;39.70;34.28;;;9.30;81.80;;;;;;5024753;28;20109;-73
2022/04/16 07:04:37;;;;;;;71.63;53.72;;;9.30;81.30;;;;;;5017326;28;20052;-72
2022/04/16 07:07:03;;;;;;;118.00;89.13;;;9.30;81.00;;;;;;5029725;28;20072;-72
2022/04/16 07:09:29;;;;;;;89.10;63.83;;;9.50;81.60;;;;;;5025203;28;20041;-73
2022/04/16 07:11:55;;;;;;;46.70;36.58;;;9.60;81.00;;;;;;5020829;28;20044;-72
2022/04/16 07:14:21;;;;;;;59.88;47.25;;;9.60;80.60;;;;;;5027903;28;20048;-72
2022/04/16 07:16:47;;;;;;;49.95;40.65;;;9.60;80.60;;;;;;5031717;28;20033;-73
2022/04/16 07:19:13;;;;;;;41.45;33.30;;;9.90;80.80;;;;;;5027358;28;20053;-72
2022/04/16 07:21:39;;;;;;;41.55;34.33;;;9.80;79.70;;;;;;5019705;28;20077;-71
2022/04/16 07:24:04;;;;;;;42.72;37.17;;;9.80;80.00;;;;;;5031503;28;20481;-72
2022/04/16 07:26:30;;;;;;;39.40;33.25;;;9.80;79.90;;;;;;5033629;28;20068;-72
2022/04/16 07:28:56;;;;;;;39.10;33.03;;;10.00;79.60;;;;;;5012663;28;20029;-73
2022/04/16 07:31:22;;;;;;;39.47;34.58;;;10.00;79.70;;;;;;5037416;28;20098;-72
2022/04/16 07:33:48;;;;;;;37.42;31.13;;;10.10;79.60;;;;;;5030058;28;20041;-73
2022/04/16 07:36:13;;;;;;;38.83;32.13;;;10.10;79.30;;;;;;5025890;28;20416;-73
2022/04/16 07:38:43;;;;;;;39.05;32.17;;;10.10;79.20;;;;;;5025585;28;20037;-74
2022/04/16 07:41:11;;;;;;;41.80;32.92;;;10.20;79.30;;;;;;5030090;28;20087;-71
2022/04/16 07:43:37;;;;;;;36.95;30.90;;;10.40;78.60;;;;;;5014544;28;20056;-72
2022/04/16 07:46:03;;;;;;;35.90;30.85;;;10.70;79.20;;;;;;5029164;28;20493;-72
2022/04/16 07:48:28;;;;;;;35.97;30.40;;;11.00;78.20;;;;;;5021552;28;20388;-72
2022/04/16 07:50:54;;;;;;;36.13;29.88;;;11.30;76.90;;;;;;5034583;28;20098;-74
2022/04/16 07:53:20;;;;;;;34.22;29.00;;;11.60;76.00;;;;;;5035921;28;20128;-72
2022/04/16 07:55:46;;;;;;;32.85;26.70;;;11.90;75.20;;;;;;5010488;28;20516;-72
2022/04/16 07:58:13;;;;;;;31.70;26.58;;;12.30;73.60;;;;;;5024317;28;20045;-72
2022/04/16 08:00:39;;;;;;;31.08;26.98;;;12.50;72.80;;;;;;5028479;28;20037;-72
2022/04/16 08:03:04;;;;;;;29.45;25.98;;;12.70;71.90;;;;;;5018847;28;20182;-73
2022/04/16 08:05:30;;;;;;;29.27;24.17;;;12.90;71.10;;;;;;5028921;28;20025;-73
2022/04/16 08:07:56;;;;;;;29.63;24.80;;;13.20;71.10;;;;;;5027888;28;20079;-73
2022/04/16 08:10:22;;;;;;;27.38;23.60;;;13.30;68.90;;;;;;5024903;28;20503;-72
2022/04/16 08:12:47;;;;;;;28.65;24.40;;;13.40;69.00;;;;;;5031557;28;20042;-72
2022/04/16 08:15:13;;;;;;;26.20;23.02;;;13.60;68.70;;;;;;5021502;28;20662;-72
2022/04/16 08:17:39;;;;;;;28.83;24.15;;;13.90;68.20;;;;;;5031085;28;20038;-72
2022/04/16 08:20:08;;;;;;;27.67;22.70;;;14.10;66.30;;;;;;5024775;28;20441;-72
2022/04/16 08:22:38;;;;;;;25.13;20.77;;;14.40;66.30;;;;;;5025855;28;20034;-73
2022/04/16 08:27:49;;;;;;;21.25;18.77;;;14.50;64.20;;;;;;5024714;28;20037;-73
2022/04/16 08:30:16;;;;;;;21.83;18.35;;;14.60;64.50;;;;;;5023636;28;20064;-72
2022/04/16 08:32:43;;;;;;;23.60;19.50;;;14.50;63.20;;;;;;5022503;28;20041;-73
2022/04/16 08:35:10;;;;;;;20.30;17.85;;;14.80;63.80;;;;;;5024264;28;20033;-73
2022/04/16 08:37:36;;;;;;;22.90;18.60;;;15.00;62.40;;;;;;5011569;28;20037;-74
2022/04/16 08:40:02;;;;;;;21.92;18.17;;;15.10;61.70;;;;;;5028785;28;20124;-73
2022/04/16 08:42:28;;;;;;;21.38;18.80;;;15.10;61.10;;;;;;5032853;28;20041;-72
2022/04/16 08:44:54;;;;;;;24.13;17.88;;;15.10;61.80;;;;;;5011623;28;20063;-73
2022/04/16 08:47:20;;;;;;;20.88;17.48;;;15.30;61.80;;;;;;5033988;28;20104;-72
2022/04/16 08:49:45;;;;;;;24.98;19.08;;;15.40;61.30;;;;;;5033241;28;20030;-73
2022/04/16 08:52:11;;;;;;;21.58;18.15;;;15.50;60.10;;;;;;5034114;28;20430;-72
2022/04/16 08:54:41;;;;;;;22.95;18.63;;;15.60;60.50;;;;;;5032023;28;20095;-73
2022/04/16 08:57:07;;;;;;;20.77;18.58;;;15.50;59.70;;;;;;5029388;28;20113;-72
2022/04/16 08:59:33;;;;;;;22.02;17.98;;;15.70;60.50;;;;;;5009532;28;20049;-73
2022/04/16 09:01:59;;;;;;;19.63;17.15;;;15.70;58.90;;;;;;5030705;28;20037;-74
2022/04/16 09:04:28;;;;;;;21.42;18.15;;;15.80;59.30;;;;;;5030375;28;20123;-73
2022/04/16 09:07:02;;;;;;;22.40;17.88;;;15.90;59.00;;;;;;5031001;28;20041;-73
2022/04/16 09:09:28;;;;;;;21.17;16.55;;;16.10;59.30;;;;;;5009680;28;20038;-74
2022/04/16 09:11:54;;;;;;;18.48;16.30;;;16.10;58.20;;;;;;5027301;28;20041;-73
2022/04/16 09:14:31;;;;;;;18.85;16.10;;;16.20;58.10;;;;;;5032915;28;20083;-72
2022/04/16 09:16:57;;;;;;;17.15;15.25;;;16.40;56.90;;;;;;5023095;28;20124;-73
2022/04/16 09:19:29;;;;;;;18.63;15.90;;;16.50;58.10;;;;;;5025951;28;20170;-73
2022/04/16 09:21:54;;;;;;;17.00;14.35;;;16.70;56.60;;;;;;5028068;28;20061;-74
2022/04/16 09:24:20;;;;;;;18.85;15.10;;;16.60;56.10;;;;;;5032401;28;20460;-72
2022/04/16 09:26:49;;;;;;;16.85;14.05;;;16.70;54.50;;;;;;5022852;28;20026;-71
2022/04/16 09:29:16;;;;;;;15.57;13.85;;;16.70;54.40;;;;;;5034050;28;20033;-72
2022/04/16 09:31:45;;;;;;;17.52;14.02;;;16.90;55.00;;;;;;5030917;28;20068;-72
2022/04/16 09:34:23;;;;;;;16.17;14.43;;;17.10;53.30;;;;;;5019568;28;20393;-72
2022/04/16 09:36:50;;;;;;;18.67;14.75;;;17.10;53.80;;;;;;5027846;28;20037;-72
2022/04/16 09:39:16;;;;;;;16.08;14.02;;;17.10;53.70;;;;;;5028649;28;20030;-72
2022/04/16 09:41:46;;;;;;;15.38;13.35;;;17.40;53.30;;;;;;5027586;28;20121;-72
2022/04/16 09:44:28;;;;;;;16.65;14.68;;;17.50;51.80;;;;;;5005932;28;20433;-72
2022/04/16 09:46:55;;;;;;;18.85;14.77;;;17.60;52.60;;;;;;5024501;28;20081;-73
2022/04/16 09:49:22;;;;;;;14.35;12.73;;;17.40;52.40;;;;;;5032302;28;20041;-72
2022/04/16 09:51:49;;;;;;;15.63;12.52;;;17.40;52.80;;;;;;5028144;28;20126;-73
2022/04/16 09:54:15;;;;;;;14.93;12.40;;;17.40;51.80;;;;;;5024303;28;20037;-73
2022/04/16 09:56:46;;;;;;;15.02;12.20;;;17.70;51.70;;;;;;5031173;28;20108;-72
2022/04/16 09:59:14;;;;;;;16.90;12.82;;;17.70;50.30;;;;;;5033350;28;20719;-72
2022/04/16 10:01:46;;;;;;;16.85;11.63;;;17.60;51.00;;;;;;5027643;28;20033;-72
2022/04/16 10:04:16;;;;;;;14.77;12.82;;;17.50;49.90;;;;;;5033616;28;20480;-72
2022/04/16 10:06:41;;;;;;;13.80;11.63;;;17.60;50.50;;;;;;5028374;28;20025;-72
2022/04/16 10:09:13;;;;;;;14.40;12.23;;;17.50;50.90;;;;;;5008913;28;20401;-73
2022/04/16 10:14:44;;;;;;;15.98;13.05;;;18.10;51.10;;;;;;5033529;28;20044;-72
2022/04/16 10:17:35;;;;;;;16.92;14.30;;;18.10;50.20;;;;;;5020932;28;20063;-73
2022/04/16 10:20:12;;;;;;;18.27;13.63;;;18.10;50.20;;;;;;5034335;28;20389;-73
2022/04/16 10:22:38;;;;;;;17.40;13.68;;;17.70;49.50;;;;;;5021072;28;20025;-73
2022/04/16 10:25:05;;;;;;;17.65;14.23;;;17.90;51.70;;;;;;5033446;28;20045;-72
2022/04/16 10:27:37;;;;;;;15.25;12.52;;;18.10;50.10;;;;;;5027499;28;20037;-71
2022/04/16 10:30:11;;;;;;;15.63;13.73;;;18.20;50.10;;;;;;5028657;28;20061;-72
2022/04/16 10:32:41;;;;;;;;;;;18.20;50.40;;;;;;5018066;28;20037;-72
2022/04/16 10:35:14;;;;;;;15.82;12.52;;;18.50;50.00;;;;;;5035240;28;20180;-72
2022/04/16 10:37:43;;;;;;;14.15;11.55;;;18.60;50.30;;;;;;5018338;28;20038;-73
2022/04/16 10:40:23;;;;;;;14.20;11.55;;;18.80;48.40;;;;;;5037224;28;20059;-73
2022/04/16 10:42:51;;;;;;;13.73;11.02;;;18.60;47.90;;;;;;5019172;28;20042;-73
2022/04/16 10:45:18;;;;;;;14.20;11.20;;;18.40;47.40;;;;;;5023595;28;20065;-72
2022/04/16 10:47:44;;;;;;;14.50;10.98;;;18.50;48.50;;;;;;5024203;28;20068;-73
2022/04/16 10:50:14;;;;;;;11.65;9.63;;;18.80;47.50;;;;;;5036316;28;20597;-73
2022/04/16 10:52:40;;;;;;;12.25;9.98;;;19.10;46.80;;;;;;5023916;28;20029;-73
2022/04/16 10:55:06;;;;;;;12.10;9.30;;;19.10;45.80;;;;;;5034960;28;20045;-73
2022/04/16 10:57:32;;;;;;;11.40;8.98;;;19.40;45.70;;;;;;5023700;28;20053;-73
2022/04/16 11:00:12;;;;;;;13.48;10.13;;;19.40;44.80;;;;;;5022378;28;20061;-73
2022/04/16 11:02:39;;;;;;;11.70;9.85;;;19.10;45.50;;;;;;5026165;28;20041;-73
2022/04/16 11:05:05;;;;;;;13.38;10.27;;;19.30;46.20;;;;;;5030923;28;20120;-73
2022/04/16 11:07:35;;;;;;;12.70;10.20;;;19.60;45.50;;;;;;5011700;28;20175;-72
2022/04/16 11:10:02;;;;;;;11.68;9.38;;;19.60;45.70;;;;;;5028757;28;20095;-73
2022/04/16 11:12:29;;;;;;;12.88;9.13;;;19.30;44.30;;;;;;5025602;28;20032;-73
2022/04/16 11:14:55;;;;;;;13.18;9.25;;;19.10;44.70;;;;;;5037102;28;20089;-73
2022/04/16 11:17:21;;;;;;;12.10;9.13;;;19.10;43.60;;;;;;5021791;28;20119;-73
2022/04/16 11:19:58;;;;;;;12.88;9.80;;;18.90;44.90;;;;;;5026121;28;20044;-73
2022/04/16 11:22:25;;;;;;;11.35;8.95;;;19.00;44.50;;;;;;5040598;28;20107;-73
2022/04/16 11:24:50;;;;;;;14.20;10.30;;;19.30;45.20;;;;;;5022389;28;20034;-74
2022/04/16 11:36:11;;;;;;;12.52;9.85;;;19.20;45.40;;;;;;5031200;28;20035;-73
2022/04/16 11:38:39;;;;;;;13.05;10.75;;;19.30;44.30;;;;;;5027292;28;20041;-74
2022/04/16 11:41:07;;;;;;;12.63;9.48;;;19.30;45.00;;;;;;5005667;28;20558;-73
2022/04/16 11:43:33;;;;;;;12.95;9.82;;;19.50;45.40;;;;;;5012555;28;20037;-73
2022/04/16 11:46:01;;;;;;;11.45;8.90;;;19.80;43.70;;;;;;5008586;28;20305;-73
2022/04/16 11:48:30;;;;;;;10.68;8.13;;;19.50;43.30;;;;;;5019635;28;20017;-73
2022/04/16 11:50:56;;;;;;;11.98;7.97;;;19.50;43.00;;;;;;5029064;28;20033;-74
2022/04/16 11:53:22;;;;;;;11.90;8.38;;;19.80;42.40;;;;;;5014589;28;20099;-74
2022/04/16 11:55:49;;;;;;;12.13;8.20;;;19.80;42.10;;;;;;5021955;28;20361;-74
2022/04/16 11:58:15;;;;;;;11.40;8.30;;;20.00;41.40;;;;;;5025885;28;20041;-74
2022/04/16 12:00:54;;;;;;;11.82;7.93;;;19.90;41.80;;;;;;5030829;28;20460;-73
2022/04/16 12:03:20;;;;;;;10.98;7.63;;;19.90;40.20;;;;;;5020727;28;20066;-73
2022/04/16 12:05:48;;;;;;;10.05;7.05;;;19.60;42.00;;;;;;5033179;28;20124;-73
2022/04/16 12:08:17;;;;;;;9.30;6.35;;;19.90;41.40;;;;;;5024164;28;20127;-74
2022/04/16 12:10:47;;;;;;;11.50;6.80;;;20.00;41.30;;;;;;5022172;28;20037;-72
2022/04/16 12:13:14;;;;;;;10.60;6.32;;;20.00;40.20;;;;;;5011193;28;20045;-73
2022/04/16 12:15:44;;;;;;;9.25;5.75;;;19.90;40.90;;;;;;5028629;28;20034;-73
2022/04/16 12:18:16;;;;;;;10.38;6.57;;;20.10;40.30;;;;;;5028552;28;20124;-73
2022/04/16 12:20:43;;;;;;;8.80;6.32;;;20.20;40.70;;;;;;5029215;28;20026;-72
2022/04/16 12:23:14;;;;;;;9.82;6.10;;;19.90;41.00;;;;;;5030746;28;20077;-73
2022/04/16 12:25:41;;;;;;;8.13;5.57;;;19.80;40.60;;;;;;5006540;28;20056;-73
2022/04/16 12:28:13;;;;;;;8.30;5.75;;;19.80;40.30;;;;;;5032247;28;20034;-73
2022/04/16 12:30:39;;;;;;;9.07;6.30;;;20.00;41.40;;;;;;5031912;28;20037;-73
2022/04/16 12:33:07;;;;;;;10.63;6.43;;;19.80;40.10;;;;;;5034014;28;20045;-72
2022/04/16 12:35:37;;;;;;;10.30;6.45;;;19.20;40.80;;;;;;5028206;28;20133;-72
2022/04/16 12:38:04;;;;;;;10.02;6.53;;;19.50;40.50;;;;;;5033052;28;20033;-73
2022/04/16 12:40:31;;;;;;;9.80;6.22;;;19.60;41.40;;;;;;5024281;28;20072;-73
2022/04/16 12:42:58;;;;;;;9.63;7.22;;;19.90;40.30;;;;;;5038987;28;20033;-74
2022/04/16 12:45:25;;;;;;;10.70;7.15;;;20.10;39.70;;;;;;5027024;28;20534;-73
2022/04/16 12:47:51;;;;;;;10.82;7.32;;;20.00;39.40;;;;;;5036459;28;20045;-73
2022/04/16 12:50:16;;;;;;;10.63;6.50;;;19.80;40.20;;;;;;5028459;28;20048;-73
2022/04/16 12:52:43;;;;;;;10.20;6.75;;;19.80;39.90;;;;;;5025202;28;20071;-72
2022/04/16 12:55:10;;;;;;;10.55;7.07;;;19.60;40.40;;;;;;5034446;28;20037;-73
2022/04/16 12:57:36;;;;;;;12.05;7.40;;;19.60;41.30;;;;;;5027554;28;20033;-72
2022/04/16 13:00:04;;;;;;;10.23;6.70;;;19.90;40.10;;;;;;5033278;28;20401;-73